createdAt,value
2022-07-26T03:55:35.426Z,3.1
2022-07-26T03:57:49.988Z,4.2
2022-07-26T04:00:04.380Z,3.9
2022-07-26T04:02:18.755Z,3.9
2022-07-26T04:04:33.136Z,3.5
2022-07-26T04:06:48.469Z,3.5
2022-07-26T04:09:04.012Z,3.4
2022-07-26T04:11:19.350Z,3.4
2022-07-26T04:13:33.823Z,3.4
2022-07-26T04:15:48.237Z,3.8
2022-07-26T04:18:02.648Z,3.4
2022-07-26T04:20:17.110Z,3.7
2022-07-26T04:22:31.474Z,4.1
2022-07-26T04:24:45.851Z,4.7
2022-07-26T04:27:00.207Z,4.6
2022-07-26T04:29:14.632Z,4
2022-07-26T04:31:34.919Z,3.7
2022-07-26T04:33:46.896Z,4.2
2022-07-26T04:36:01.342Z,4.5
2022-07-26T04:38:15.680Z,4.2
2022-07-26T04:40:31.043Z,4.4
2022-07-26T04:42:45.429Z,4.4
2022-07-26T04:45:03.174Z,4.5
2022-07-26T04:47:16.243Z,4.5
2022-07-26T04:49:30.681Z,4.4
2022-07-26T04:51:45.090Z,4.5
2022-07-26T04:53:59.459Z,4.7
2022-07-26T04:56:14.265Z,4.8
2022-07-26T04:58:28.660Z,4.8
2022-07-26T05:01:08.801Z,5.3
2022-07-26T05:03:00.454Z,5.1
2022-07-26T05:05:16.009Z,5.1
2022-07-26T05:07:30.370Z,5.1
2022-07-26T05:09:44.791Z,4.9
2022-07-26T05:11:59.145Z,5.1
2022-07-26T05:14:13.538Z,5.1
2022-07-26T05:16:28.903Z,5.7
2022-07-26T05:18:46.157Z,5.7
2022-07-26T05:21:00.661Z,5.2
2022-07-26T05:23:15.002Z,5.8
2022-07-26T05:25:29.553Z,6.2
2022-07-26T05:27:44.955Z,5.6
2022-07-26T05:29:59.357Z,6.2
2022-07-26T05:32:13.711Z,6.3
2022-07-26T05:34:28.116Z,6
2022-07-26T05:36:42.514Z,6.5
2022-07-26T05:38:56.940Z,5.9
2022-07-26T05:41:11.304Z,6.5
2022-07-26T05:43:25.717Z,6.6
2022-07-26T05:45:40.153Z,6.6
2022-07-26T05:47:54.514Z,7.2
2022-07-26T05:50:08.858Z,7.2
2022-07-26T05:52:23.449Z,7
2022-07-26T05:54:37.887Z,7.5
2022-07-26T05:56:52.307Z,7.8
2022-07-26T05:59:06.664Z,8
2022-07-26T06:01:21.130Z,7.4
2022-07-26T06:03:38.786Z,8.3
2022-07-26T06:05:54.165Z,6.9
2022-07-26T06:08:08.554Z,7.9
2022-07-26T06:10:22.989Z,8.5
2022-07-26T06:12:37.384Z,8.3
2022-07-26T06:14:51.696Z,9
2022-07-26T06:17:06.468Z,8.5
2022-07-26T06:19:20.699Z,8.9
2022-07-26T06:21:35.074Z,9
2022-07-26T06:23:49.547Z,9.4
2022-07-26T06:26:03.853Z,9.3
2022-07-26T06:28:18.306Z,10.2
2022-07-26T06:30:32.655Z,8.5
2022-07-26T06:32:47.032Z,9.7
2022-07-26T06:35:01.484Z,9.5
2022-07-26T06:37:14.762Z,9.5
2022-07-26T06:39:29.341Z,10.1
2022-07-26T06:41:44.665Z,10.1
2022-07-26T06:43:59.100Z,9.8
2022-07-26T06:46:14.523Z,10
2022-07-26T06:48:29.810Z,10.4
2022-07-26T06:50:44.424Z,10.9
2022-07-26T06:52:59.780Z,11.2
2022-07-26T06:55:14.145Z,10
2022-07-26T06:57:28.575Z,10.3
2022-07-26T06:59:42.938Z,10
2022-07-26T07:02:00.590Z,9.2
2022-07-26T07:04:14.637Z,9.8
2022-07-26T07:06:29.051Z,10
2022-07-26T07:08:45.385Z,9.8
2022-07-26T07:10:59.777Z,10.1
2022-07-26T07:13:15.246Z,11.2
2022-07-26T07:15:29.680Z,11.1
2022-07-26T07:17:44.957Z,10.8
2022-07-26T07:19:59.334Z,10.7
2022-07-26T07:22:13.721Z,10.8
2022-07-26T07:24:28.161Z,11.2
2022-07-26T07:26:43.528Z,11.4
2022-07-26T07:28:58.922Z,14.7
2022-07-26T07:31:13.414Z,12.7
2022-07-26T07:33:32.210Z,13.6
2022-07-26T07:35:45.993Z,14.2
2022-07-26T07:38:00.432Z,12.9
2022-07-26T07:40:14.800Z,13.3
2022-07-26T07:42:29.169Z,13.4
2022-07-26T07:44:43.524Z,13.3
2022-07-26T07:46:57.976Z,12.9
2022-07-26T07:49:12.605Z,14.1
2022-07-26T07:51:28.612Z,13.3
2022-07-26T07:53:43.144Z,13.2
2022-07-26T07:55:58.463Z,13.9
2022-07-26T07:58:12.861Z,14.5
2022-07-26T08:00:29.257Z,13.1
2022-07-26T08:02:43.706Z,13.5
2022-07-26T08:05:04.665Z,13.5
2022-07-26T08:07:16.573Z,13.6
2022-07-26T08:09:33.654Z,13.7
2022-07-26T08:11:50.567Z,13.3
2022-07-26T08:14:03.617Z,13.1
2022-07-26T08:16:19.030Z,12.9
2022-07-26T08:18:33.322Z,13.5
2022-07-26T08:20:47.681Z,13.5
2022-07-26T08:23:02.198Z,13
2022-07-26T08:25:16.533Z,12.9
2022-07-26T08:27:30.938Z,12.6
2022-07-26T08:29:45.311Z,12.7
2022-07-26T08:31:59.681Z,12.3
2022-07-26T08:34:14.212Z,12.2
2022-07-26T08:36:32.495Z,12.4
2022-07-26T08:38:48.387Z,12.1
2022-07-26T08:41:02.002Z,13.3
2022-07-26T08:43:16.353Z,12.4
2022-07-26T08:45:30.704Z,12.2
2022-07-26T08:48:07.753Z,11.2
2022-07-26T08:50:02.385Z,12.4
2022-07-26T08:52:16.779Z,12.9
2022-07-26T08:54:32.138Z,13.3
2022-07-26T08:56:46.543Z,12.8
2022-07-26T08:59:00.904Z,13
2022-07-26T09:01:15.505Z,13
2022-07-26T09:03:29.981Z,14.7
2022-07-26T09:05:44.312Z,13.6
2022-07-26T09:07:58.917Z,12.8
2022-07-26T09:10:13.277Z,11.7
2022-07-26T09:12:27.723Z,11.7
2022-07-26T09:14:43.086Z,12.5
2022-07-26T09:16:57.427Z,11.4
2022-07-26T09:19:11.815Z,11.3
2022-07-26T09:21:26.219Z,11.2
2022-07-26T09:23:40.586Z,10.8
2022-07-26T09:25:54.970Z,10.1
2022-07-26T09:28:09.322Z,9.9
2022-07-26T09:30:23.755Z,9
2022-07-26T09:32:38.602Z,9.1
2022-07-26T09:34:57.829Z,7.8
2022-07-26T09:37:12.565Z,7.7
2022-07-26T09:39:33.386Z,7.1
2022-07-26T09:41:43.776Z,7.4
2022-07-26T09:43:58.157Z,7.3
2022-07-26T09:46:12.518Z,7.1
2022-07-26T09:48:30.328Z,6.9
2022-07-26T09:50:43.558Z,7.3
2022-07-26T09:52:57.702Z,7.8
2022-07-26T09:55:12.077Z,6.7
2022-07-26T09:57:26.449Z,6.7
2022-07-26T09:59:41.162Z,6.8
2022-07-26T10:01:55.604Z,6.9
2022-07-26T10:04:10.219Z,6.2
2022-07-26T10:06:30.335Z,6
2022-07-26T10:08:41.663Z,5.6
2022-07-26T10:10:57.044Z,6.5
2022-07-26T10:13:11.528Z,5.9
2022-07-26T10:15:25.890Z,5.8
2022-07-26T10:17:41.337Z,5.9
2022-07-26T10:19:55.713Z,5.4
2022-07-26T10:22:10.183Z,5.3
2022-07-26T10:24:24.516Z,5.5
2022-07-26T10:26:38.929Z,6.3
2022-07-26T10:28:54.290Z,7.2
2022-07-26T10:31:08.948Z,6.6
2022-07-26T10:33:23.297Z,7
2022-07-26T10:35:37.688Z,7.7
2022-07-26T10:37:52.053Z,8.6
2022-07-26T10:40:06.411Z,9.1
2022-07-26T10:42:20.844Z,8.6
2022-07-26T10:44:35.285Z,9.7
2022-07-26T10:46:49.754Z,10.1
2022-07-26T10:49:04.446Z,11
2022-07-26T10:51:18.469Z,10.6
2022-07-26T10:53:32.850Z,10.3
2022-07-26T10:55:47.356Z,10
2022-07-26T10:58:01.777Z,11.4
2022-07-26T11:00:17.611Z,11.5
2022-07-26T11:02:32.049Z,12.6
2022-07-26T11:04:46.176Z,12.1
2022-07-26T11:07:00.847Z,11.6
2022-07-26T11:09:15.280Z,11.6
2022-07-26T11:11:29.784Z,10.8
2022-07-26T11:13:44.535Z,9.8
2022-07-26T11:15:58.986Z,9.8
2022-07-26T11:18:13.520Z,10
2022-07-26T11:20:30.397Z,10.2
2022-07-26T11:22:45.351Z,10.8
2022-07-26T11:24:59.710Z,10.4
2022-07-26T11:27:14.350Z,10.2
2022-07-26T11:29:37.301Z,9.8
2022-07-26T11:31:50.103Z,9.5
2022-07-26T11:34:03.788Z,8.4
2022-07-26T11:36:18.224Z,8.2
2022-07-26T11:38:32.576Z,9.2
2022-07-26T11:40:47.913Z,8.6
2022-07-26T11:43:02.642Z,7.3
2022-07-26T11:45:17.098Z,7.2
2022-07-26T11:47:31.984Z,7.5
2022-07-26T11:49:51.685Z,7.3
2022-07-26T11:52:03.866Z,7.2
2022-07-26T11:54:18.415Z,7.2
2022-07-26T11:56:32.752Z,6.5
2022-07-26T11:58:47.541Z,6.7
2022-07-26T12:01:01.930Z,6.8
2022-07-26T12:03:17.110Z,7.5
2022-07-26T12:05:32.083Z,7.3
2022-07-26T12:07:47.420Z,6.4
2022-07-26T12:10:02.799Z,7.2
2022-07-26T12:12:18.229Z,7.6
2022-07-26T12:14:32.818Z,7.8
2022-07-26T12:16:47.215Z,8
2022-07-26T12:19:01.608Z,7.7
2022-07-26T12:21:15.954Z,5.8
2022-07-26T12:23:30.392Z,4.4
2022-07-26T12:25:49.229Z,3.4
2022-07-26T12:28:03.552Z,3.4
2022-07-26T12:30:17.972Z,3.1
2022-07-26T12:32:32.342Z,2.9
2022-07-26T12:34:46.734Z,2.5
2022-07-26T12:37:02.281Z,2.1
2022-07-26T12:39:16.762Z,2.5
2022-07-26T12:41:31.270Z,2.4
2022-07-26T12:43:49.311Z,2.1
2022-07-26T12:46:03.627Z,2.3
2022-07-26T12:48:17.959Z,2.1
2022-07-26T12:50:32.449Z,2
2022-07-26T12:52:47.942Z,2.4
2022-07-26T12:55:02.572Z,2.4
2022-07-26T12:57:17.071Z,1.9
2022-07-26T12:59:31.442Z,1.7
2022-07-26T13:01:46.858Z,1.7
2022-07-26T13:04:02.761Z,1.5
2022-07-26T13:06:17.775Z,1.9
2022-07-26T13:08:32.242Z,1.9
2022-07-26T13:10:47.522Z,1.8
2022-07-26T13:13:01.947Z,1.6
2022-07-26T13:15:16.374Z,1.5
2022-07-26T13:17:31.189Z,1.7
2022-07-26T13:19:46.503Z,1.9
2022-07-26T13:22:01.259Z,1.6
2022-07-26T13:24:17.658Z,1.5
2022-07-26T13:26:33.098Z,1.2
2022-07-26T13:28:50.199Z,1.2
2022-07-26T13:31:04.648Z,1.4
2022-07-26T13:33:19.270Z,1.4
2022-07-26T13:35:33.704Z,1.1
2022-07-26T13:37:48.246Z,1.3
2022-07-26T13:40:02.765Z,1
2022-07-26T13:42:17.122Z,1.3
2022-07-26T13:44:32.352Z,1.2
2022-07-26T13:46:47.952Z,1.1
2022-07-26T13:49:03.150Z,1.1
2022-07-26T13:51:18.422Z,1
2022-07-26T13:53:34.055Z,1.3
2022-07-26T13:55:48.578Z,2.6
2022-07-26T13:58:09.288Z,2.4
2022-07-26T14:00:19.387Z,2.8
2022-07-26T14:02:34.116Z,2.5
2022-07-26T14:04:48.439Z,2.5
2022-07-26T14:07:03.271Z,3.4
2022-07-26T14:09:17.985Z,2.7
2022-07-26T14:11:34.222Z,2.3
2022-07-26T14:13:48.546Z,2.7
2022-07-26T14:16:03.119Z,2.4
2022-07-26T14:18:18.550Z,2.4
2022-07-26T14:20:32.904Z,2.4
2022-07-26T14:22:47.317Z,2.7
2022-07-26T14:25:02.847Z,2.1
2022-07-26T14:27:17.426Z,2.2
2022-07-26T14:29:31.809Z,2.4
2022-07-26T14:31:46.298Z,3
2022-07-26T14:34:00.926Z,2.5
2022-07-26T14:36:15.400Z,3.1
2022-07-26T14:38:30.832Z,2.7
2022-07-26T14:40:45.455Z,2.7
2022-07-26T14:42:59.859Z,2.4
2022-07-26T14:45:14.687Z,2.6
2022-07-26T14:47:29.185Z,2.6
2022-07-26T14:49:43.616Z,2.4
2022-07-26T14:51:58.073Z,2.6
2022-07-26T14:54:13.418Z,3
2022-07-26T14:56:27.401Z,2.5
2022-07-26T14:58:42.312Z,2.5
2022-07-26T15:00:56.706Z,2.6
2022-07-26T15:03:11.286Z,3.2
2022-07-26T15:05:25.926Z,2.4
2022-07-26T15:07:40.558Z,2.5
2022-07-26T15:09:55.499Z,2.7
2022-07-26T15:12:10.666Z,2.5
2022-07-26T15:14:25.723Z,2.8
2022-07-26T15:16:40.182Z,2.5
2022-07-26T15:18:56.558Z,2.6
2022-07-26T15:21:10.867Z,2.1
2022-07-26T15:23:25.266Z,2.2
2022-07-26T15:25:39.788Z,2.3
2022-07-26T15:27:54.117Z,2.4
2022-07-26T15:30:13.463Z,2.7
2022-07-26T15:32:25.969Z,2.1
2022-07-26T15:34:40.466Z,2.2
2022-07-26T15:36:57.856Z,2.1
2022-07-26T15:39:17.730Z,1.7
2022-07-26T15:41:31.390Z,2
2022-07-26T15:43:49.043Z,1.6
2022-07-26T15:46:06.078Z,1.9
2022-07-26T15:48:23.385Z,1.7
2022-07-26T15:50:38.720Z,1.8
2022-07-26T15:52:55.958Z,1.7
2022-07-26T15:55:11.973Z,1.8
2022-07-26T15:57:26.128Z,1.4
2022-07-26T15:59:40.864Z,1.7
2022-07-26T16:01:55.855Z,1.8
2022-07-26T16:04:11.234Z,2
2022-07-26T16:06:25.856Z,2.6
2022-07-26T16:09:05.739Z,1.8
2022-07-26T16:10:58.358Z,1.7
2022-07-26T16:13:16.702Z,1.7
2022-07-26T16:15:31.690Z,2
2022-07-26T16:17:46.452Z,1.5
2022-07-26T16:20:01.687Z,1.3
2022-07-26T16:22:16.352Z,1.4
2022-07-26T16:24:30.739Z,1.5
2022-07-26T16:26:45.213Z,1.4
2022-07-26T16:29:02.541Z,1.7
2022-07-26T16:31:17.380Z,1.8
2022-07-26T16:33:35.350Z,1.6
2022-07-26T16:35:49.486Z,1.5
2022-07-26T16:38:04.784Z,1.5
2022-07-26T16:40:19.633Z,1.5
2022-07-26T16:42:35.280Z,1.8
2022-07-26T16:44:49.732Z,1.9
2022-07-26T16:47:04.317Z,1.8
2022-07-26T16:49:18.888Z,1.8
2022-07-26T16:51:34.314Z,1.5
2022-07-26T16:53:48.864Z,1.3
2022-07-26T16:56:04.116Z,1.6
2022-07-26T16:58:19.166Z,1.4
2022-07-26T17:00:34.934Z,1.5
2022-07-26T17:02:52.044Z,1.5
2022-07-26T17:05:07.925Z,1.3
2022-07-26T17:07:26.021Z,0.9
2022-07-26T17:09:41.099Z,1
2022-07-26T17:11:55.703Z,1
2022-07-26T17:14:11.050Z,1.1
2022-07-26T17:16:26.478Z,1.1
2022-07-26T17:18:41.793Z,1
2022-07-26T17:21:01.328Z,1
2022-07-26T17:23:15.513Z,1.1
2022-07-26T17:25:33.139Z,0.9
2022-07-26T17:27:46.897Z,1
2022-07-26T17:30:06.992Z,1.1
2022-07-26T17:32:24.073Z,1.4
2022-07-26T17:34:41.618Z,1.1
2022-07-26T17:36:58.199Z,1.3
2022-07-26T17:39:15.719Z,1
2022-07-26T17:41:32.943Z,1.1
2022-07-26T17:43:46.881Z,1.2
2022-07-26T17:46:01.712Z,1
2022-07-26T17:48:16.019Z,0.9
2022-07-26T17:50:37.261Z,1.1
2022-07-26T17:52:48.685Z,1
2022-07-26T17:55:04.186Z,1
2022-07-26T17:57:19.349Z,0.8
2022-07-26T17:59:33.894Z,1
2022-07-26T18:01:53.955Z,1
2022-07-26T18:04:06.934Z,1.3
2022-07-26T18:06:21.867Z,0.9
2022-07-26T18:08:39.455Z,1.1
2022-07-26T18:10:53.798Z,0.8
2022-07-26T18:13:08.238Z,0.9
2022-07-26T18:15:23.175Z,0.7
2022-07-26T18:17:37.747Z,0.9
2022-07-26T18:19:52.196Z,1.2
2022-07-26T18:22:07.802Z,1.4
2022-07-26T18:24:22.365Z,1.2
2022-07-26T18:26:37.087Z,1
2022-07-26T18:28:51.491Z,1.1
2022-07-26T18:31:06.147Z,1.1
2022-07-26T18:33:21.459Z,0.8
2022-07-26T18:35:35.840Z,0.9
2022-07-26T18:37:50.620Z,1.1
2022-07-26T18:40:05.138Z,1.3
2022-07-26T18:42:20.134Z,0.8
2022-07-26T18:44:34.839Z,1
2022-07-26T18:46:49.306Z,1.1
2022-07-26T18:49:03.764Z,1.1
2022-07-26T18:51:19.050Z,0.8
2022-07-26T18:53:34.283Z,0.9
2022-07-26T18:55:48.610Z,1.5
2022-07-26T18:58:07.022Z,1.1
2022-07-26T19:00:21.187Z,1.2
2022-07-26T19:02:35.704Z,1.1
2022-07-26T19:04:50.191Z,1.3
2022-07-26T19:07:04.675Z,1.3
2022-07-26T19:09:20.265Z,1.1
2022-07-26T19:11:37.728Z,1.4
2022-07-26T19:13:51.768Z,1.3
2022-07-26T19:16:06.825Z,1.2
2022-07-26T19:18:24.234Z,1.2
2022-07-26T19:20:38.398Z,1.3
2022-07-26T19:22:53.662Z,1.1
2022-07-26T19:25:08.301Z,1
2022-07-26T19:27:22.833Z,1.7
2022-07-26T19:29:40.644Z,1.9
2022-07-26T19:31:54.994Z,2.1
2022-07-26T19:34:09.578Z,2.2
2022-07-26T19:36:26.637Z,2.3
2022-07-26T19:38:40.954Z,2
2022-07-26T19:40:55.759Z,2
2022-07-26T19:43:10.201Z,1.9
2022-07-26T19:45:25.372Z,2
2022-07-26T19:47:39.756Z,1.8
2022-07-26T19:49:54.971Z,2
2022-07-26T19:52:12.124Z,1.5
2022-07-26T19:54:26.213Z,1.5
2022-07-26T19:56:40.980Z,1.3
2022-07-26T19:58:58.479Z,1.6
2022-07-26T20:01:12.647Z,1.4
2022-07-26T20:03:26.505Z,1.4
2022-07-26T20:05:40.966Z,1.7
2022-07-26T20:07:56.372Z,1.5
2022-07-26T20:10:11.263Z,1.9
2022-07-26T20:12:27.483Z,1.6
2022-07-26T20:14:42.343Z,2.1
2022-07-26T20:16:58.785Z,1.3
2022-07-26T20:19:14.403Z,1.8
2022-07-26T20:21:28.659Z,1.9
2022-07-26T20:23:43.470Z,2.1
2022-07-26T20:25:57.803Z,2
2022-07-26T20:28:12.165Z,2
2022-07-26T20:30:27.836Z,1.9
2022-07-26T20:32:42.660Z,1.5
2022-07-26T20:34:57.095Z,1.6
2022-07-26T20:37:12.713Z,1.7
2022-07-26T20:39:27.979Z,1.5
2022-07-26T20:41:42.537Z,1.6
2022-07-26T20:43:58.029Z,1.8
2022-07-26T20:46:13.208Z,1.8
2022-07-26T20:48:27.972Z,1.8
2022-07-26T20:50:42.626Z,1.7
2022-07-26T20:52:57.430Z,1.7
2022-07-26T20:55:13.167Z,1.7
2022-07-26T20:57:27.519Z,2
2022-07-26T20:59:43.082Z,1.7
2022-07-26T21:01:57.797Z,1.5
2022-07-26T21:04:12.353Z,1.8
2022-07-26T21:06:29.121Z,1.7
2022-07-26T21:08:43.507Z,1.6
2022-07-26T21:10:57.982Z,1.3
2022-07-26T21:13:12.412Z,1.8
2022-07-26T21:15:27.390Z,1.6
2022-07-26T21:17:42.062Z,1.7
2022-07-26T21:19:57.331Z,2.2
2022-07-26T21:22:12.089Z,1.9
2022-07-26T21:24:26.951Z,1.8
2022-07-26T21:26:42.317Z,3.8
2022-07-26T21:28:56.956Z,2.1
